sensor_id;sensor_type;location;lat;lon;timestamp;temperature;humidity
57088;DHT22;42965;52.846;6.614;2023-05-07T00:02:07;13.90;99.90
57088;DHT22;42965;52.846;6.614;2023-05-07T00:04:33;13.90;99.90
57088;DHT22;42965;52.846;6.614;2023-05-07T00:07:03;13.90;99.90
57088;DHT22;42965;52.846;6.614;2023-05-07T00:09:30;13.80;99.90
57088;DHT22;42965;52.846;6.614;2023-05-07T00:11:56;13.80;99.90
57088;DHT22;42965;52.846;6.614;2023-05-07T00:14:22;13.80;99.90
57088;DHT22;42965;52.846;6.614;2023-05-07T00:16:49;13.80;99.90
57088;DHT22;42965;52.846;6.614;2023-05-07T00:19:15;13.80;99.90
57088;DHT22;42965;52.846;6.614;2023-05-07T00:21:41;13.70;99.90
57088;DHT22;42965;52.846;6.614;2023-05-07T00:24:08;13.70;99.90
57088;DHT22;42965;52.846;6.614;2023-05-07T00:26:34;13.70;99.90
57088;DHT22;42965;52.846;6.614;2023-05-07T00:29:00;13.70;99.90
57088;DHT22;42965;52.846;6.614;2023-05-07T00:31:26;13.70;99.90
57088;DHT22;42965;52.846;6.614;2023-05-07T00:33:53;13.60;99.90
57088;DHT22;42965;52.846;6.614;2023-05-07T00:36:19;13.60;99.90
57088;DHT22;42965;52.846;6.614;2023-05-07T00:38:48;13.60;99.90
57088;DHT22;42965;52.846;6.614;2023-05-07T00:41:15;13.60;99.90
57088;DHT22;42965;52.846;6.614;2023-05-07T00:43:41;13.50;99.90
57088;DHT22;42965;52.846;6.614;2023-05-07T00:46:08;13.50;99.90
57088;DHT22;42965;52.846;6.614;2023-05-07T00:48:34;13.50;99.90
57088;DHT22;42965;52.846;6.614;2023-05-07T00:51:00;13.50;99.90
57088;DHT22;42965;52.846;6.614;2023-05-07T00:53:27;13.50;99.90
57088;DHT22;42965;52.846;6.614;2023-05-07T00:55:53;13.40;99.90
57088;DHT22;42965;52.846;6.614;2023-05-07T00:58:20;13.40;99.90
57088;DHT22;42965;52.846;6.614;2023-05-07T01:00:47;13.40;99.90
57088;DHT22;42965;52.846;6.614;2023-05-07T01:03:13;13.30;99.90
57088;DHT22;42965;52.846;6.614;2023-05-07T01:05:39;13.30;99.90
57088;DHT22;42965;52.846;6.614;2023-05-07T01:08:06;13.30;99.90
57088;DHT22;42965;52.846;6.614;2023-05-07T01:10:33;13.20;99.90
57088;DHT22;42965;52.846;6.614;2023-05-07T01:12:59;13.10;99.90
57088;DHT22;42965;52.846;6.614;2023-05-07T01:15:26;13.10;99.90
57088;DHT22;42965;52.846;6.614;2023-05-07T01:17:53;12.90;99.90
57088;DHT22;42965;52.846;6.614;2023-05-07T01:20:28;12.90;99.90
57088;DHT22;42965;52.846;6.614;2023-05-07T01:22:57;12.90;99.90
57088;DHT22;42965;52.846;6.614;2023-05-07T01:25:24;12.80;99.90
57088;DHT22;42965;52.846;6.614;2023-05-07T01:27:53;12.80;99.90
57088;DHT22;42965;52.846;6.614;2023-05-07T01:30:23;12.70;99.90
57088;DHT22;42965;52.846;6.614;2023-05-07T01:32:53;12.70;99.90
57088;DHT22;42965;52.846;6.614;2023-05-07T01:35:26;12.60;99.90
57088;DHT22;42965;52.846;6.614;2023-05-07T01:37:54;12.60;99.90
57088;DHT22;42965;52.846;6.614;2023-05-07T01:40:21;12.60;99.90
57088;DHT22;42965;52.846;6.614;2023-05-07T01:42:47;12.60;99.90
57088;DHT22;42965;52.846;6.614;2023-05-07T01:45:14;12.50;99.90
57088;DHT22;42965;52.846;6.614;2023-05-07T01:47:40;12.50;99.90
57088;DHT22;42965;52.846;6.614;2023-05-07T01:50:08;12.40;99.90
57088;DHT22;42965;52.846;6.614;2023-05-07T01:52:39;12.40;99.90
57088;DHT22;42965;52.846;6.614;2023-05-07T01:55:06;12.40;99.90
57088;DHT22;42965;52.846;6.614;2023-05-07T01:57:32;12.30;99.90
57088;DHT22;42965;52.846;6.614;2023-05-07T01:59:59;12.30;99.90
57088;DHT22;42965;52.846;6.614;2023-05-07T02:02:25;12.30;99.90
57088;DHT22;42965;52.846;6.614;2023-05-07T02:04:53;12.20;99.90
57088;DHT22;42965;52.846;6.614;2023-05-07T02:07:20;12.20;99.90
57088;DHT22;42965;52.846;6.614;2023-05-07T02:09:47;12.20;99.90
57088;DHT22;42965;52.846;6.614;2023-05-07T02:12:13;12.30;99.90
57088;DHT22;42965;52.846;6.614;2023-05-07T02:14:39;12.20;99.90
57088;DHT22;42965;52.846;6.614;2023-05-07T02:17:05;12.10;99.90
57088;DHT22;42965;52.846;6.614;2023-05-07T02:19:32;12.10;99.90
57088;DHT22;42965;52.846;6.614;2023-05-07T02:21:58;12.10;99.90
57088;DHT22;42965;52.846;6.614;2023-05-07T02:24:29;12.10;99.90
57088;DHT22;42965;52.846;6.614;2023-05-07T02:26:57;12.10;99.90
57088;DHT22;42965;52.846;6.614;2023-05-07T02:29:23;12.10;99.90
57088;DHT22;42965;52.846;6.614;2023-05-07T02:31:49;12.00;99.90
57088;DHT22;42965;52.846;6.614;2023-05-07T02:34:17;12.00;99.90
57088;DHT22;42965;52.846;6.614;2023-05-07T02:36:43;12.00;99.90
57088;DHT22;42965;52.846;6.614;2023-05-07T02:39:13;12.00;99.90
57088;DHT22;42965;52.846;6.614;2023-05-07T02:41:40;12.00;99.90
57088;DHT22;42965;52.846;6.614;2023-05-07T02:44:06;11.90;99.90
57088;DHT22;42965;52.846;6.614;2023-05-07T02:46:33;12.00;99.90
57088;DHT22;42965;52.846;6.614;2023-05-07T02:49:04;11.90;99.90
57088;DHT22;42965;52.846;6.614;2023-05-07T02:51:30;11.90;99.90
57088;DHT22;42965;52.846;6.614;2023-05-07T02:53:59;11.90;99.90
57088;DHT22;42965;52.846;6.614;2023-05-07T02:56:27;11.90;99.90
57088;DHT22;42965;52.846;6.614;2023-05-07T02:58:54;11.80;99.90
57088;DHT22;42965;52.846;6.614;2023-05-07T03:01:23;11.80;99.90
57088;DHT22;42965;52.846;6.614;2023-05-07T03:03:55;11.80;99.90
57088;DHT22;42965;52.846;6.614;2023-05-07T03:06:22;11.80;99.90
57088;DHT22;42965;52.846;6.614;2023-05-07T03:08:48;11.70;99.90
57088;DHT22;42965;52.846;6.614;2023-05-07T03:11:14;11.80;99.90
57088;DHT22;42965;52.846;6.614;2023-05-07T03:13:41;11.70;99.90
57088;DHT22;42965;52.846;6.614;2023-05-07T03:16:07;11.70;99.90
57088;DHT22;42965;52.846;6.614;2023-05-07T03:18:33;11.70;99.90
57088;DHT22;42965;52.846;6.614;2023-05-07T03:21:00;11.70;99.90
57088;DHT22;42965;52.846;6.614;2023-05-07T03:23:26;11.70;99.90
57088;DHT22;42965;52.846;6.614;2023-05-07T03:25:52;11.70;99.90
57088;DHT22;42965;52.846;6.614;2023-05-07T03:28:19;11.60;99.90
57088;DHT22;42965;52.846;6.614;2023-05-07T03:30:51;11.60;99.90
57088;DHT22;42965;52.846;6.614;2023-05-07T03:33:17;11.60;99.90
57088;DHT22;42965;52.846;6.614;2023-05-07T03:35:46;11.60;99.90
57088;DHT22;42965;52.846;6.614;2023-05-07T03:38:18;11.60;99.90
57088;DHT22;42965;52.846;6.614;2023-05-07T03:40:44;11.60;99.90
57088;DHT22;42965;52.846;6.614;2023-05-07T03:43:10;11.60;99.90
57088;DHT22;42965;52.846;6.614;2023-05-07T03:45:39;11.50;99.90
57088;DHT22;42965;52.846;6.614;2023-05-07T03:48:17;11.50;99.90
57088;DHT22;42965;52.846;6.614;2023-05-07T03:50:43;11.50;99.90
57088;DHT22;42965;52.846;6.614;2023-05-07T03:53:09;11.50;99.90
57088;DHT22;42965;52.846;6.614;2023-05-07T03:55:38;11.50;99.90
57088;DHT22;42965;52.846;6.614;2023-05-07T03:58:05;11.50;99.90
57088;DHT22;42965;52.846;6.614;2023-05-07T04:00:31;11.50;99.90
57088;DHT22;42965;52.846;6.614;2023-05-07T04:03:00;11.50;99.90
57088;DHT22;42965;52.846;6.614;2023-05-07T04:05:30;11.50;99.90
57088;DHT22;42965;52.846;6.614;2023-05-07T04:08:01;11.50;99.90
57088;DHT22;42965;52.846;6.614;2023-05-07T04:10:35;11.50;99.90
57088;DHT22;42965;52.846;6.614;2023-05-07T04:13:05;11.50;99.90
57088;DHT22;42965;52.846;6.614;2023-05-07T04:15:32;11.50;99.90
57088;DHT22;42965;52.846;6.614;2023-05-07T04:17:58;11.50;99.90
57088;DHT22;42965;52.846;6.614;2023-05-07T04:20:25;11.50;99.90
57088;DHT22;42965;52.846;6.614;2023-05-07T04:22:58;11.50;99.90
57088;DHT22;42965;52.846;6.614;2023-05-07T04:25:25;11.40;99.90
57088;DHT22;42965;52.846;6.614;2023-05-07T04:27:56;11.50;99.90
57088;DHT22;42965;52.846;6.614;2023-05-07T04:30:26;11.50;99.90
57088;DHT22;42965;52.846;6.614;2023-05-07T04:32:52;11.50;99.90
57088;DHT22;42965;52.846;6.614;2023-05-07T04:35:19;11.50;99.90
57088;DHT22;42965;52.846;6.614;2023-05-07T04:37:46;11.50;99.90
57088;DHT22;42965;52.846;6.614;2023-05-07T04:40:13;11.50;99.90
57088;DHT22;42965;52.846;6.614;2023-05-07T04:42:41;11.50;99.90
57088;DHT22;42965;52.846;6.614;2023-05-07T04:45:08;11.50;99.90
57088;DHT22;42965;52.846;6.614;2023-05-07T04:47:35;11.50;99.90
57088;DHT22;42965;52.846;6.614;2023-05-07T04:50:02;11.50;99.90
57088;DHT22;42965;52.846;6.614;2023-05-07T04:52:29;11.50;99.90
57088;DHT22;42965;52.846;6.614;2023-05-07T04:54:55;11.60;99.90
57088;DHT22;42965;52.846;6.614;2023-05-07T04:57:22;11.50;99.90
57088;DHT22;42965;52.846;6.614;2023-05-07T04:59:48;11.50;99.90
57088;DHT22;42965;52.846;6.614;2023-05-07T05:02:15;11.60;99.90
57088;DHT22;42965;52.846;6.614;2023-05-07T05:04:42;11.60;99.90
57088;DHT22;42965;52.846;6.614;2023-05-07T05:07:09;11.60;99.90
57088;DHT22;42965;52.846;6.614;2023-05-07T05:09:36;11.60;99.90
57088;DHT22;42965;52.846;6.614;2023-05-07T05:12:03;11.60;99.90
57088;DHT22;42965;52.846;6.614;2023-05-07T05:14:29;11.60;99.90
57088;DHT22;42965;52.846;6.614;2023-05-07T05:16:55;11.60;99.90
57088;DHT22;42965;52.846;6.614;2023-05-07T05:19:22;11.60;99.90
57088;DHT22;42965;52.846;6.614;2023-05-07T05:21:49;11.70;99.90
57088;DHT22;42965;52.846;6.614;2023-05-07T05:24:15;11.70;99.90
57088;DHT22;42965;52.846;6.614;2023-05-07T05:26:41;11.70;99.90
57088;DHT22;42965;52.846;6.614;2023-05-07T05:29:08;11.80;99.90
57088;DHT22;42965;52.846;6.614;2023-05-07T05:31:35;11.80;99.90
57088;DHT22;42965;52.846;6.614;2023-05-07T05:34:02;11.90;99.90
57088;DHT22;42965;52.846;6.614;2023-05-07T05:36:29;11.90;99.90
57088;DHT22;42965;52.846;6.614;2023-05-07T05:38:57;11.90;99.90
57088;DHT22;42965;52.846;6.614;2023-05-07T05:41:23;11.90;99.90
57088;DHT22;42965;52.846;6.614;2023-05-07T05:43:51;12.00;99.90
57088;DHT22;42965;52.846;6.614;2023-05-07T05:46:18;12.10;99.90
57088;DHT22;42965;52.846;6.614;2023-05-07T05:48:44;12.20;99.90
57088;DHT22;42965;52.846;6.614;2023-05-07T05:51:11;12.20;99.90
57088;DHT22;42965;52.846;6.614;2023-05-07T05:53:38;12.30;99.90
57088;DHT22;42965;52.846;6.614;2023-05-07T05:56:06;12.30;99.90
57088;DHT22;42965;52.846;6.614;2023-05-07T05:58:33;12.30;99.90
57088;DHT22;42965;52.846;6.614;2023-05-07T06:01:04;12.30;99.90
57088;DHT22;42965;52.846;6.614;2023-05-07T06:03:31;12.40;99.90
57088;DHT22;42965;52.846;6.614;2023-05-07T06:06:02;12.30;99.90
57088;DHT22;42965;52.846;6.614;2023-05-07T06:08:32;12.30;99.90
57088;DHT22;42965;52.846;6.614;2023-05-07T06:10:59;12.40;99.90
57088;DHT22;42965;52.846;6.614;2023-05-07T06:13:26;12.50;99.90
57088;DHT22;42965;52.846;6.614;2023-05-07T06:15:52;12.50;99.90
57088;DHT22;42965;52.846;6.614;2023-05-07T06:18:20;12.50;99.90
57088;DHT22;42965;52.846;6.614;2023-05-07T06:20:46;12.70;99.90
57088;DHT22;42965;52.846;6.614;2023-05-07T06:23:20;12.80;99.90
57088;DHT22;42965;52.846;6.614;2023-05-07T06:25:51;12.80;99.90
57088;DHT22;42965;52.846;6.614;2023-05-07T06:28:19;12.70;99.90
57088;DHT22;42965;52.846;6.614;2023-05-07T06:30:45;12.70;99.90
57088;DHT22;42965;52.846;6.614;2023-05-07T06:33:16;12.70;99.90
57088;DHT22;42965;52.846;6.614;2023-05-07T06:35:42;12.60;99.90
57088;DHT22;42965;52.846;6.614;2023-05-07T06:38:09;12.60;99.90
57088;DHT22;42965;52.846;6.614;2023-05-07T06:40:36;12.50;99.90
57088;DHT22;42965;52.846;6.614;2023-05-07T06:43:02;12.60;99.90
57088;DHT22;42965;52.846;6.614;2023-05-07T06:45:45;12.60;99.90
57088;DHT22;42965;52.846;6.614;2023-05-07T06:48:12;12.60;99.90
57088;DHT22;42965;52.846;6.614;2023-05-07T06:50:48;12.60;99.90
57088;DHT22;42965;52.846;6.614;2023-05-07T06:53:15;12.50;99.90
57088;DHT22;42965;52.846;6.614;2023-05-07T06:55:41;12.50;99.90
57088;DHT22;42965;52.846;6.614;2023-05-07T06:58:08;12.50;99.90
57088;DHT22;42965;52.846;6.614;2023-05-07T07:00:34;12.50;99.90
57088;DHT22;42965;52.846;6.614;2023-05-07T07:03:00;12.50;99.90
57088;DHT22;42965;52.846;6.614;2023-05-07T07:05:28;12.60;99.90
57088;DHT22;42965;52.846;6.614;2023-05-07T07:07:54;12.80;99.90
57088;DHT22;42965;52.846;6.614;2023-05-07T07:10:22;13.00;99.90
57088;DHT22;42965;52.846;6.614;2023-05-07T07:12:50;13.20;99.90
57088;DHT22;42965;52.846;6.614;2023-05-07T07:15:16;13.40;99.90
57088;DHT22;42965;52.846;6.614;2023-05-07T07:17:43;13.40;99.90
57088;DHT22;42965;52.846;6.614;2023-05-07T07:20:10;13.50;99.90
57088;DHT22;42965;52.846;6.614;2023-05-07T07:22:36;13.50;99.90
57088;DHT22;42965;52.846;6.614;2023-05-07T07:25:03;13.30;99.90
57088;DHT22;42965;52.846;6.614;2023-05-07T07:27:30;13.40;99.90
57088;DHT22;42965;52.846;6.614;2023-05-07T07:29:56;13.50;99.90
57088;DHT22;42965;52.846;6.614;2023-05-07T07:32:23;13.60;99.90
57088;DHT22;42965;52.846;6.614;2023-05-07T07:34:50;13.50;99.90
57088;DHT22;42965;52.846;6.614;2023-05-07T07:37:16;13.50;99.90
57088;DHT22;42965;52.846;6.614;2023-05-07T07:39:42;13.60;99.90
57088;DHT22;42965;52.846;6.614;2023-05-07T07:42:08;13.80;99.90
57088;DHT22;42965;52.846;6.614;2023-05-07T07:44:35;13.70;99.90
57088;DHT22;42965;52.846;6.614;2023-05-07T07:47:06;13.60;99.90
57088;DHT22;42965;52.846;6.614;2023-05-07T07:49:33;13.80;99.90
57088;DHT22;42965;52.846;6.614;2023-05-07T07:52:03;13.80;99.90
57088;DHT22;42965;52.846;6.614;2023-05-07T07:54:32;13.90;99.90
57088;DHT22;42965;52.846;6.614;2023-05-07T07:56:58;13.90;99.90
57088;DHT22;42965;52.846;6.614;2023-05-07T07:59:25;14.00;99.90
57088;DHT22;42965;52.846;6.614;2023-05-07T08:01:51;13.90;99.90
57088;DHT22;42965;52.846;6.614;2023-05-07T08:04:19;14.00;99.90
57088;DHT22;42965;52.846;6.614;2023-05-07T08:06:46;14.00;99.90
57088;DHT22;42965;52.846;6.614;2023-05-07T08:09:12;14.10;99.90
57088;DHT22;42965;52.846;6.614;2023-05-07T08:11:41;14.10;99.90
57088;DHT22;42965;52.846;6.614;2023-05-07T08:14:07;14.20;99.90
57088;DHT22;42965;52.846;6.614;2023-05-07T08:16:33;14.20;99.90
57088;DHT22;42965;52.846;6.614;2023-05-07T08:19:01;14.30;99.90
57088;DHT22;42965;52.846;6.614;2023-05-07T08:21:27;14.30;99.90
57088;DHT22;42965;52.846;6.614;2023-05-07T08:23:54;14.50;99.90
57088;DHT22;42965;52.846;6.614;2023-05-07T08:26:20;14.70;99.90
57088;DHT22;42965;52.846;6.614;2023-05-07T08:28:47;14.80;99.90
57088;DHT22;42965;52.846;6.614;2023-05-07T08:31:13;15.00;99.90
57088;DHT22;42965;52.846;6.614;2023-05-07T08:33:43;15.20;99.90
57088;DHT22;42965;52.846;6.614;2023-05-07T08:36:10;15.40;99.90
57088;DHT22;42965;52.846;6.614;2023-05-07T08:38:37;15.50;99.90
57088;DHT22;42965;52.846;6.614;2023-05-07T08:41:04;15.60;99.90
57088;DHT22;42965;52.846;6.614;2023-05-07T08:43:32;15.70;99.90
57088;DHT22;42965;52.846;6.614;2023-05-07T08:46:01;15.80;99.90
57088;DHT22;42965;52.846;6.614;2023-05-07T08:48:35;15.90;99.90
57088;DHT22;42965;52.846;6.614;2023-05-07T08:51:13;16.00;99.90
57088;DHT22;42965;52.846;6.614;2023-05-07T08:53:47;16.30;99.90
57088;DHT22;42965;52.846;6.614;2023-05-07T08:56:22;16.00;99.90
57088;DHT22;42965;52.846;6.614;2023-05-07T08:58:49;16.20;99.90
57088;DHT22;42965;52.846;6.614;2023-05-07T09:01:17;16.60;99.90
57088;DHT22;42965;52.846;6.614;2023-05-07T09:03:50;16.80;99.90
57088;DHT22;42965;52.846;6.614;2023-05-07T09:06:18;16.80;99.90
57088;DHT22;42965;52.846;6.614;2023-05-07T09:08:55;16.90;99.90
57088;DHT22;42965;52.846;6.614;2023-05-07T09:11:25;17.30;99.90
57088;DHT22;42965;52.846;6.614;2023-05-07T09:13:54;17.50;99.90
57088;DHT22;42965;52.846;6.614;2023-05-07T09:16:26;17.80;99.90
57088;DHT22;42965;52.846;6.614;2023-05-07T09:18:54;17.80;99.90
57088;DHT22;42965;52.846;6.614;2023-05-07T09:21:22;18.00;99.90
57088;DHT22;42965;52.846;6.614;2023-05-07T09:23:52;18.10;99.90
57088;DHT22;42965;52.846;6.614;2023-05-07T09:26:24;18.10;99.90
57088;DHT22;42965;52.846;6.614;2023-05-07T09:28:52;18.10;99.90
57088;DHT22;42965;52.846;6.614;2023-05-07T09:31:20;17.90;99.90
57088;DHT22;42965;52.846;6.614;2023-05-07T09:33:47;18.10;99.90
57088;DHT22;42965;52.846;6.614;2023-05-07T09:36:15;17.90;99.90
57088;DHT22;42965;52.846;6.614;2023-05-07T09:38:45;17.90;99.90
57088;DHT22;42965;52.846;6.614;2023-05-07T09:41:13;18.10;99.90
57088;DHT22;42965;52.846;6.614;2023-05-07T09:44:05;18.30;99.90
57088;DHT22;42965;52.846;6.614;2023-05-07T09:46:39;18.60;99.90
57088;DHT22;42965;52.846;6.614;2023-05-07T09:49:23;18.80;99.90
57088;DHT22;42965;52.846;6.614;2023-05-07T09:51:54;18.60;99.90
57088;DHT22;42965;52.846;6.614;2023-05-07T09:54:24;18.60;99.90
57088;DHT22;42965;52.846;6.614;2023-05-07T09:56:55;18.70;99.90
57088;DHT22;42965;52.846;6.614;2023-05-07T09:59:25;19.30;99.90
57088;DHT22;42965;52.846;6.614;2023-05-07T10:01:57;19.80;99.90
57088;DHT22;42965;52.846;6.614;2023-05-07T10:04:25;19.90;99.90
57088;DHT22;42965;52.846;6.614;2023-05-07T10:06:53;20.00;99.90
57088;DHT22;42965;52.846;6.614;2023-05-07T10:09:22;19.80;99.90
57088;DHT22;42965;52.846;6.614;2023-05-07T10:11:50;19.80;99.90
57088;DHT22;42965;52.846;6.614;2023-05-07T10:14:19;19.90;99.90
57088;DHT22;42965;52.846;6.614;2023-05-07T10:16:48;19.60;99.90
57088;DHT22;42965;52.846;6.614;2023-05-07T10:19:17;19.60;99.90
57088;DHT22;42965;52.846;6.614;2023-05-07T10:22:02;19.70;99.90
57088;DHT22;42965;52.846;6.614;2023-05-07T10:24:36;20.10;99.90
57088;DHT22;42965;52.846;6.614;2023-05-07T10:27:11;20.70;99.90
57088;DHT22;42965;52.846;6.614;2023-05-07T10:32:37;21.40;99.90
57088;DHT22;42965;52.846;6.614;2023-05-07T10:35:36;21.30;99.90
57088;DHT22;42965;52.846;6.614;2023-05-07T10:38:02;21.00;99.90
57088;DHT22;42965;52.846;6.614;2023-05-07T10:40:31;21.30;99.90
57088;DHT22;42965;52.846;6.614;2023-05-07T10:43:00;21.40;99.90
57088;DHT22;42965;52.846;6.614;2023-05-07T10:45:30;21.20;99.90
57088;DHT22;42965;52.846;6.614;2023-05-07T10:48:15;20.80;99.90
57088;DHT22;42965;52.846;6.614;2023-05-07T10:50:46;21.10;99.90
57088;DHT22;42965;52.846;6.614;2023-05-07T10:58:53;21.10;99.90
57088;DHT22;42965;52.846;6.614;2023-05-07T11:01:50;21.40;99.90
57088;DHT22;42965;52.846;6.614;2023-05-07T11:04:22;21.10;99.90
57088;DHT22;42965;52.846;6.614;2023-05-07T11:07:25;21.30;99.90
57088;DHT22;42965;52.846;6.614;2023-05-07T11:09:55;21.60;99.90
57088;DHT22;42965;52.846;6.614;2023-05-07T11:15:35;22.30;99.90
57088;DHT22;42965;52.846;6.614;2023-05-07T11:18:04;22.60;94.70
57088;DHT22;42965;52.846;6.614;2023-05-07T11:20:45;22.90;97.40
57088;DHT22;42965;52.846;6.614;2023-05-07T11:26:23;23.40;89.80
57088;DHT22;42965;52.846;6.614;2023-05-07T11:28:51;24.30;90.20
57088;DHT22;42965;52.846;6.614;2023-05-07T11:31:24;24.10;84.70
57088;DHT22;42965;52.846;6.614;2023-05-07T11:33:52;24.30;77.80
57088;DHT22;42965;52.846;6.614;2023-05-07T11:36:22;23.50;75.90
57088;DHT22;42965;52.846;6.614;2023-05-07T11:38:52;23.80;75.20
57088;DHT22;42965;52.846;6.614;2023-05-07T11:41:18;23.50;74.20
57088;DHT22;42965;52.846;6.614;2023-05-07T11:43:56;23.20;78.30
57088;DHT22;42965;52.846;6.614;2023-05-07T11:46:23;23.30;76.30
57088;DHT22;42965;52.846;6.614;2023-05-07T11:48:49;24.00;79.50
57088;DHT22;42965;52.846;6.614;2023-05-07T11:51:22;24.20;73.70
57088;DHT22;42965;52.846;6.614;2023-05-07T11:53:53;24.60;70.80
57088;DHT22;42965;52.846;6.614;2023-05-07T11:56:19;24.70;67.50
57088;DHT22;42965;52.846;6.614;2023-05-07T11:58:47;24.50;64.00
57088;DHT22;42965;52.846;6.614;2023-05-07T12:01:14;24.80;65.20
57088;DHT22;42965;52.846;6.614;2023-05-07T12:03:43;24.50;65.20
57088;DHT22;42965;52.846;6.614;2023-05-07T12:06:12;24.40;65.80
57088;DHT22;42965;52.846;6.614;2023-05-07T12:08:41;24.70;65.20
57088;DHT22;42965;52.846;6.614;2023-05-07T12:11:29;24.50;65.50
57088;DHT22;42965;52.846;6.614;2023-05-07T12:13:55;24.60;66.20
57088;DHT22;42965;52.846;6.614;2023-05-07T12:16:22;24.80;65.90
57088;DHT22;42965;52.846;6.614;2023-05-07T12:18:49;24.80;64.60
57088;DHT22;42965;52.846;6.614;2023-05-07T12:21:16;24.60;65.10
57088;DHT22;42965;52.846;6.614;2023-05-07T12:23:46;24.20;65.50
57088;DHT22;42965;52.846;6.614;2023-05-07T12:26:12;24.20;66.50
57088;DHT22;42965;52.846;6.614;2023-05-07T12:28:39;24.00;67.20
57088;DHT22;42965;52.846;6.614;2023-05-07T12:31:06;23.60;66.30
57088;DHT22;42965;52.846;6.614;2023-05-07T12:33:34;23.50;67.50
57088;DHT22;42965;52.846;6.614;2023-05-07T12:36:04;24.00;66.20
57088;DHT22;42965;52.846;6.614;2023-05-07T12:38:35;24.30;65.80
57088;DHT22;42965;52.846;6.614;2023-05-07T12:41:03;24.20;63.90
57088;DHT22;42965;52.846;6.614;2023-05-07T12:43:30;23.90;64.90
57088;DHT22;42965;52.846;6.614;2023-05-07T12:46:07;24.00;66.50
57088;DHT22;42965;52.846;6.614;2023-05-07T12:48:35;23.70;65.80
57088;DHT22;42965;52.846;6.614;2023-05-07T12:51:02;23.40;66.20
57088;DHT22;42965;52.846;6.614;2023-05-07T12:53:29;23.50;67.30
57088;DHT22;42965;52.846;6.614;2023-05-07T12:55:57;23.30;68.50
57088;DHT22;42965;52.846;6.614;2023-05-07T12:58:33;23.60;67.10
57088;DHT22;42965;52.846;6.614;2023-05-07T13:01:03;23.80;64.90
57088;DHT22;42965;52.846;6.614;2023-05-07T13:03:32;23.50;66.00
57088;DHT22;42965;52.846;6.614;2023-05-07T13:06:00;24.00;66.60
57088;DHT22;42965;52.846;6.614;2023-05-07T13:08:37;24.00;65.20
57088;DHT22;42965;52.846;6.614;2023-05-07T13:11:04;24.80;63.90
57088;DHT22;42965;52.846;6.614;2023-05-07T13:13:32;25.10;63.40
57088;DHT22;42965;52.846;6.614;2023-05-07T13:15:58;25.50;63.10
57088;DHT22;42965;52.846;6.614;2023-05-07T13:18:26;25.50;61.50
57088;DHT22;42965;52.846;6.614;2023-05-07T13:20:53;25.90;61.80
57088;DHT22;42965;52.846;6.614;2023-05-07T13:23:19;25.90;61.10
57088;DHT22;42965;52.846;6.614;2023-05-07T13:25:46;26.00;60.00
57088;DHT22;42965;52.846;6.614;2023-05-07T13:28:12;25.80;59.70
57088;DHT22;42965;52.846;6.614;2023-05-07T13:30:39;25.80;60.30
57088;DHT22;42965;52.846;6.614;2023-05-07T13:33:07;25.70;59.20
57088;DHT22;42965;52.846;6.614;2023-05-07T13:35:33;25.50;58.60
57088;DHT22;42965;52.846;6.614;2023-05-07T13:37:59;24.80;59.40
57088;DHT22;42965;52.846;6.614;2023-05-07T13:40:26;24.40;60.10
57088;DHT22;42965;52.846;6.614;2023-05-07T13:42:53;24.40;61.10
57088;DHT22;42965;52.846;6.614;2023-05-07T13:45:19;24.00;61.80
57088;DHT22;42965;52.846;6.614;2023-05-07T13:47:46;23.90;62.20
57088;DHT22;42965;52.846;6.614;2023-05-07T13:50:13;23.80;63.50
57088;DHT22;42965;52.846;6.614;2023-05-07T13:52:43;23.30;64.00
57088;DHT22;42965;52.846;6.614;2023-05-07T13:55:20;23.10;64.50
57088;DHT22;42965;52.846;6.614;2023-05-07T13:57:48;23.10;66.20
57088;DHT22;42965;52.846;6.614;2023-05-07T14:00:20;22.90;66.80
57088;DHT22;42965;52.846;6.614;2023-05-07T14:02:46;22.90;69.20
57088;DHT22;42965;52.846;6.614;2023-05-07T14:05:13;22.70;70.70
57088;DHT22;42965;52.846;6.614;2023-05-07T14:07:39;22.70;73.70
57088;DHT22;42965;52.846;6.614;2023-05-07T14:10:05;22.70;72.70
57088;DHT22;42965;52.846;6.614;2023-05-07T14:12:32;22.80;75.40
57088;DHT22;42965;52.846;6.614;2023-05-07T14:14:59;22.70;76.80
57088;DHT22;42965;52.846;6.614;2023-05-07T14:17:25;22.50;78.30
57088;DHT22;42965;52.846;6.614;2023-05-07T14:19:53;22.10;81.20
57088;DHT22;42965;52.846;6.614;2023-05-07T14:22:23;21.50;93.00
57088;DHT22;42965;52.846;6.614;2023-05-07T14:24:50;21.30;98.90
57088;DHT22;42965;52.846;6.614;2023-05-07T14:27:16;21.00;99.90
57088;DHT22;42965;52.846;6.614;2023-05-07T14:29:43;21.00;99.90
57088;DHT22;42965;52.846;6.614;2023-05-07T14:32:09;20.80;99.90
57088;DHT22;42965;52.846;6.614;2023-05-07T14:34:35;20.90;99.90
57088;DHT22;42965;52.846;6.614;2023-05-07T14:37:03;21.00;99.90
57088;DHT22;42965;52.846;6.614;2023-05-07T14:39:29;21.10;99.90
57088;DHT22;42965;52.846;6.614;2023-05-07T14:41:57;21.00;99.90
57088;DHT22;42965;52.846;6.614;2023-05-07T14:44:24;21.00;99.90
57088;DHT22;42965;52.846;6.614;2023-05-07T14:46:50;20.80;99.90
57088;DHT22;42965;52.846;6.614;2023-05-07T14:49:17;20.60;99.90
57088;DHT22;42965;52.846;6.614;2023-05-07T14:51:44;20.90;99.90
57088;DHT22;42965;52.846;6.614;2023-05-07T14:54:11;20.80;99.90
57088;DHT22;42965;52.846;6.614;2023-05-07T14:56:38;20.70;99.90
57088;DHT22;42965;52.846;6.614;2023-05-07T14:59:04;20.60;99.90
57088;DHT22;42965;52.846;6.614;2023-05-07T15:01:31;20.50;99.90
57088;DHT22;42965;52.846;6.614;2023-05-07T15:03:57;20.50;99.90
57088;DHT22;42965;52.846;6.614;2023-05-07T15:06:23;20.80;99.90
57088;DHT22;42965;52.846;6.614;2023-05-07T15:08:50;20.60;99.90
57088;DHT22;42965;52.846;6.614;2023-05-07T15:11:16;20.70;99.90
57088;DHT22;42965;52.846;6.614;2023-05-07T15:13:43;20.60;99.90
57088;DHT22;42965;52.846;6.614;2023-05-07T15:16:09;20.60;99.90
57088;DHT22;42965;52.846;6.614;2023-05-07T15:18:35;20.70;99.90
57088;DHT22;42965;52.846;6.614;2023-05-07T15:21:02;20.70;99.90
57088;DHT22;42965;52.846;6.614;2023-05-07T15:23:28;20.90;99.90
57088;DHT22;42965;52.846;6.614;2023-05-07T15:25:54;20.90;99.90
57088;DHT22;42965;52.846;6.614;2023-05-07T15:28:20;20.80;99.90
57088;DHT22;42965;52.846;6.614;2023-05-07T15:30:46;21.10;99.90
57088;DHT22;42965;52.846;6.614;2023-05-07T15:33:13;21.10;99.90
57088;DHT22;42965;52.846;6.614;2023-05-07T15:35:39;21.00;99.90
57088;DHT22;42965;52.846;6.614;2023-05-07T15:38:05;21.00;99.90
57088;DHT22;42965;52.846;6.614;2023-05-07T15:40:31;20.60;99.90
57088;DHT22;42965;52.846;6.614;2023-05-07T15:42:58;20.40;99.90
57088;DHT22;42965;52.846;6.614;2023-05-07T15:45:25;20.50;99.90
57088;DHT22;42965;52.846;6.614;2023-05-07T15:47:52;20.60;99.90
57088;DHT22;42965;52.846;6.614;2023-05-07T15:50:18;20.70;99.90
57088;DHT22;42965;52.846;6.614;2023-05-07T15:52:44;20.40;99.90